Time;durP1;ratioP1;P1;durP2;ratioP2;P2;SDS_P1;SDS_P2;PMS_P1;PMS_P2;Temp;Humidity;BMP_temperature;BMP_pressure;BME280_temperature;BME280_humidity;BME280_pressure;Samples;Min_cycle;Max_cycle;Signal;HPM_P1;HPM_P2
2023/11/19 00:00:50;;;;;;;;;;;13.70;99.90;;;;;;4959946;28;19927;-87
2023/11/19 00:03:16;;;;;;;;;;;13.70;99.90;;;;;;4979104;28;19914;-86
2023/11/19 00:05:41;;;;;;;;;;;13.70;99.90;;;;;;4955246;28;19910;-86
2023/11/19 00:08:08;;;;;;;;;;;13.70;99.90;;;;;;4947731;28;20464;-88
2023/11/19 00:10:34;;;;;;;;;;;13.80;99.90;;;;;;4949326;28;19914;-88
2023/11/19 00:12:59;;;;;;;;;;;13.80;99.90;;;;;;4940769;28;19919;-87
2023/11/19 00:15:25;;;;;;;;;;;13.80;99.90;;;;;;4944948;28;19910;-88
2023/11/19 00:17:50;;;;;;;;;;;13.80;99.90;;;;;;4937068;28;19922;-86
2023/11/19 00:20:17;;;;;;;;;;;13.80;99.90;;;;;;4973023;28;19910;-87
2023/11/19 00:22:43;;;;;;;;;;;13.80;99.90;;;;;;4967186;28;19968;-88
2023/11/19 00:25:08;;;;;;;;;;;13.80;99.90;;;;;;4973316;28;19898;-86
2023/11/19 00:27:34;;;;;;;;;;;13.80;99.90;;;;;;4942711;28;19942;-86
2023/11/19 00:29:59;;;;;;;;;;;13.90;99.90;;;;;;4947962;28;19907;-86
2023/11/19 00:32:25;;;;;;;;;;;13.80;99.90;;;;;;4939265;28;19915;-86
2023/11/19 00:34:51;;;;;;;;;;;13.90;99.90;;;;;;4950982;28;20346;-86
2023/11/19 00:37:16;;;;;;;;;;;13.90;99.90;;;;;;4950219;28;19933;-85
2023/11/19 00:39:42;;;;;;;;;;;14.00;99.90;;;;;;4951377;28;19906;-86
2023/11/19 00:42:07;;;;;;;;;;;14.00;99.90;;;;;;4933120;28;19915;-86
2023/11/19 00:44:33;;;;;;;;;;;14.00;99.90;;;;;;4939112;28;19910;-86
2023/11/19 00:47:00;;;;;;;;;;;13.90;99.90;;;;;;4936728;28;19915;-87
2023/11/19 00:49:25;;;;;;;;;;;13.90;99.90;;;;;;4955281;28;19937;-87
2023/11/19 00:51:50;;;;;;;;;;;13.90;99.90;;;;;;4939122;28;19962;-86
2023/11/19 00:54:16;;;;;;;;;;;14.00;99.90;;;;;;4940228;28;20498;-86
2023/11/19 00:56:41;;;;;;;;;;;14.00;99.90;;;;;;4941670;28;19966;-86
2023/11/19 00:59:07;;;;;;;;;;;14.00;99.90;;;;;;4942800;28;19917;-85
2023/11/19 01:01:33;;;;;;;;;;;14.00;99.90;;;;;;4946348;28;20343;-85
2023/11/19 01:03:59;;;;;;;;;;;14.00;99.90;;;;;;4947113;28;19911;-85
2023/11/19 01:06:30;;;;;;;;;;;14.00;99.90;;;;;;4951610;28;20354;-85
2023/11/19 01:08:59;;;;;;;;;;;14.00;99.90;;;;;;4935815;28;19917;-85
2023/11/19 01:11:25;;;;;;;;;;;14.00;99.90;;;;;;4963087;28;19913;-84
2023/11/19 01:13:51;;;;;;;;;;;14.00;99.90;;;;;;4952620;28;19914;-85
2023/11/19 01:16:16;;;;;;;;;;;14.10;99.90;;;;;;4937621;28;19918;-85
2023/11/19 01:18:42;;;;;;;;;;;14.00;99.90;;;;;;4941494;28;19911;-86
2023/11/19 01:21:08;;;;;;;;;;;14.00;99.90;;;;;;4942614;28;19922;-87
2023/11/19 01:23:34;;;;;;;;;;;14.00;99.90;;;;;;4939153;28;20377;-86
2023/11/19 01:25:59;;;;;;;;;;;14.10;99.90;;;;;;4941418;28;19914;-87
2023/11/19 01:28:25;;;;;;;;;;;14.10;99.90;;;;;;4949013;28;20447;-86
2023/11/19 01:30:50;;;;;;;;;;;14.10;99.90;;;;;;4946935;28;19911;-87
2023/11/19 01:33:16;;;;;;;;;;;14.10;99.90;;;;;;4937337;28;20362;-87
2023/11/19 01:35:41;;;;;;;;;;;14.10;99.90;;;;;;4940163;28;20008;-87
2023/11/19 01:38:08;;;;;;;;;;;14.10;99.90;;;;;;4934385;28;19932;-86
2023/11/19 01:40:34;;;;;;;;;;;14.10;99.90;;;;;;4946157;28;19982;-87
2023/11/19 01:42:59;;;;;;;;;;;14.10;99.90;;;;;;4946957;28;20510;-87
2023/11/19 01:45:29;;;;;;;;;;;14.10;99.90;;;;;;4938156;28;19918;-87
2023/11/19 01:47:55;;;;;;;;;;;14.10;99.90;;;;;;4958184;28;20288;-86
2023/11/19 01:50:21;;;;;;;;;;;14.10;99.90;;;;;;4940940;28;19910;-86
2023/11/19 01:52:47;;;;;;;;;;;14.10;99.90;;;;;;4938862;28;19925;-85
2023/11/19 01:55:13;;;;;;;;;;;14.10;99.90;;;;;;4949925;28;20514;-86
2023/11/19 01:57:40;;;;;;;;;;;14.10;99.90;;;;;;4937505;28;19911;-86
2023/11/19 02:00:06;;;;;;;;;;;14.10;99.90;;;;;;4942869;28;20631;-86
2023/11/19 02:02:32;;;;;;;;;;;14.10;99.90;;;;;;4942649;28;19926;-85
2023/11/19 02:04:57;;;;;;;;;;;14.10;99.90;;;;;;4945244;28;19910;-86
2023/11/19 02:07:24;;;;;;;;;;;14.10;99.90;;;;;;4942362;28;20511;-86
2023/11/19 02:09:49;;;;;;;;;;;14.10;99.90;;;;;;4944326;28;19946;-86
2023/11/19 02:12:15;;;;;;;;;;;14.10;99.90;;;;;;4942211;28;19945;-86
2023/11/19 02:14:40;;;;;;;;;;;14.10;99.90;;;;;;4947553;28;19934;-86
2023/11/19 02:17:06;;;;;;;;;;;14.10;99.90;;;;;;4950664;28;20342;-87
2023/11/19 02:19:31;;;;;;;;;;;14.10;99.90;;;;;;4939558;28;19911;-86
2023/11/19 02:22:00;;;;;;;;;;;14.10;99.90;;;;;;4953715;28;19968;-87
2023/11/19 02:24:28;;;;;;;;;;;14.10;99.90;;;;;;4949517;28;20546;-87
2023/11/19 02:27:09;;;;;;;;;;;14.10;99.90;;;;;;4960533;28;19911;-87
2023/11/19 02:29:35;;;;;;;;;;;14.10;99.90;;;;;;4943766;28;19911;-84
2023/11/19 02:32:03;;;;;;;;;;;14.10;99.90;;;;;;4945975;28;19920;-87
2023/11/19 02:34:28;;;;;;;;;;;14.10;99.90;;;;;;4946967;28;19957;-87
2023/11/19 02:36:54;;;;;;;;;;;14.00;99.90;;;;;;4941561;28;19929;-87
2023/11/19 02:39:21;;;;;;;;;;;14.10;99.90;;;;;;4954874;28;19961;-87
2023/11/19 02:41:47;;;;;;;;;;;14.00;99.90;;;;;;4947688;28;20051;-88
2023/11/19 02:44:13;;;;;;;;;;;14.00;99.90;;;;;;4949508;28;19907;-87
2023/11/19 02:46:41;;;;;;;;;;;14.00;99.90;;;;;;4964129;28;19905;-87
2023/11/19 02:49:07;;;;;;;;;;;14.00;99.90;;;;;;4952365;28;19915;-88
2023/11/19 02:51:33;;;;;;;;;;;14.00;99.90;;;;;;4943655;28;19918;-86
2023/11/19 02:53:58;;;;;;;;;;;14.00;99.90;;;;;;4941125;28;19911;-87
2023/11/19 02:56:27;;;;;;;;;;;14.00;99.90;;;;;;4947404;28;19910;-87
2023/11/19 02:58:52;;;;;;;;;;;14.00;99.90;;;;;;4941436;28;19910;-86
2023/11/19 03:01:30;;;;;;;;;;;13.90;99.90;;;;;;4948722;28;19926;-86
2023/11/19 03:03:57;;;;;;;;;;;13.90;99.90;;;;;;4945934;28;19918;-85
2023/11/19 03:06:23;;;;;;;;;;;13.90;99.90;;;;;;4949339;28;19922;-87
2023/11/19 03:08:48;;;;;;;;;;;13.90;99.90;;;;;;4944915;28;19914;-86
2023/11/19 03:11:14;;;;;;;;;;;13.90;99.90;;;;;;4940820;28;20373;-86
2023/11/19 03:13:39;;;;;;;;;;;13.90;99.90;;;;;;4939115;28;19921;-86
2023/11/19 03:16:05;;;;;;;;;;;13.90;99.90;;;;;;4941370;28;19931;-86
2023/11/19 03:18:30;;;;;;;;;;;13.90;99.90;;;;;;4940196;28;19952;-86
2023/11/19 03:20:58;;;;;;;;;;;13.80;99.90;;;;;;4947291;28;19922;-86
2023/11/19 03:23:24;;;;;;;;;;;13.80;99.90;;;;;;4941785;28;19917;-85
2023/11/19 03:25:49;;;;;;;;;;;13.80;99.90;;;;;;4956102;28;19913;-87
2023/11/19 03:28:15;;;;;;;;;;;13.80;99.90;;;;;;4959764;28;20356;-86
2023/11/19 03:30:40;;;;;;;;;;;13.70;99.90;;;;;;4934820;28;20273;-87
2023/11/19 03:33:06;;;;;;;;;;;13.70;99.90;;;;;;4951511;28;19929;-88
2023/11/19 03:35:32;;;;;;;;;;;13.70;99.90;;;;;;4939317;28;19993;-87
2023/11/19 03:37:58;;;;;;;;;;;13.70;99.90;;;;;;4947700;28;19907;-87
2023/11/19 03:40:25;;;;;;;;;;;13.70;99.90;;;;;;4933755;28;19910;-87
2023/11/19 03:42:50;;;;;;;;;;;13.60;99.90;;;;;;4951474;28;19918;-85
2023/11/19 03:45:16;;;;;;;;;;;13.60;99.90;;;;;;4939416;28;20005;-85
2023/11/19 03:47:41;;;;;;;;;;;13.60;99.90;;;;;;4933905;28;19911;-85
2023/11/19 03:50:08;;;;;;;;;;;13.60;99.90;;;;;;4934251;28;19911;-86
2023/11/19 03:52:33;;;;;;;;;;;13.50;99.90;;;;;;4937416;28;19910;-85
2023/11/19 03:54:59;;;;;;;;;;;13.40;99.90;;;;;;4941242;28;20396;-85
2023/11/19 03:57:24;;;;;;;;;;;13.40;99.90;;;;;;4935877;28;19911;-86
2023/11/19 03:59:49;;;;;;;;;;;13.40;99.90;;;;;;4941394;28;20875;-86
2023/11/19 04:02:15;;;;;;;;;;;13.30;99.90;;;;;;4944520;28;19931;-86
2023/11/19 04:04:41;;;;;;;;;;;13.30;99.90;;;;;;4941648;28;20372;-86
2023/11/19 04:07:06;;;;;;;;;;;13.20;99.90;;;;;;4946330;28;20293;-86
2023/11/19 04:09:37;;;;;;;;;;;13.10;99.90;;;;;;4936664;28;19911;-86
2023/11/19 04:12:03;;;;;;;;;;;13.10;99.90;;;;;;4951339;28;19957;-86
2023/11/19 04:14:28;;;;;;;;;;;13.10;99.90;;;;;;4947173;28;19914;-86
2023/11/19 04:16:53;;;;;;;;;;;13.00;99.90;;;;;;4939088;28;19911;-86
2023/11/19 04:19:19;;;;;;;;;;;13.00;99.90;;;;;;4947565;28;20354;-86
2023/11/19 04:21:45;;;;;;;;;;;13.00;99.90;;;;;;4935208;28;19915;-86
2023/11/19 04:24:14;;;;;;;;;;;12.90;99.90;;;;;;4934518;28;19918;-87
2023/11/19 04:26:40;;;;;;;;;;;12.90;99.90;;;;;;4939926;28;19917;-85
2023/11/19 04:29:08;;;;;;;;;;;12.90;99.90;;;;;;4950974;28;20408;-85
2023/11/19 04:31:33;;;;;;;;;;;12.80;99.90;;;;;;4949634;28;19906;-85
2023/11/19 04:34:00;;;;;;;;;;;12.80;99.90;;;;;;4940775;28;19969;-82
2023/11/19 04:36:25;;;;;;;;;;;12.80;99.90;;;;;;4948969;28;19955;-85
2023/11/19 04:38:51;;;;;;;;;;;12.80;99.90;;;;;;4940217;28;19965;-86
2023/11/19 04:41:17;;;;;;;;;;;12.80;99.90;;;;;;4944962;28;19922;-85
2023/11/19 04:43:42;;;;;;;;;;;12.80;99.90;;;;;;4949341;28;19911;-85
2023/11/19 04:46:09;;;;;;;;;;;12.80;99.90;;;;;;4941684;28;19914;-85
2023/11/19 04:48:34;;;;;;;;;;;12.80;99.90;;;;;;4951109;28;19965;-84
2023/11/19 04:51:00;;;;;;;;;;;12.70;99.90;;;;;;4940903;28;19942;-85
2023/11/19 04:53:25;;;;;;;;;;;12.70;99.90;;;;;;4945782;28;19911;-86
2023/11/19 04:55:51;;;;;;;;;;;12.70;99.90;;;;;;4939172;28;19958;-86
2023/11/19 04:58:16;;;;;;;;;;;12.70;99.90;;;;;;4948554;28;19911;-86
2023/11/19 05:00:42;;;;;;;;;;;12.60;99.90;;;;;;4934507;28;20013;-85
2023/11/19 05:03:08;;;;;;;;;;;12.60;99.90;;;;;;4939947;28;19910;-86
2023/11/19 05:05:33;;;;;;;;;;;12.60;99.90;;;;;;4942005;28;19911;-86
2023/11/19 05:07:59;;;;;;;;;;;12.60;99.90;;;;;;4939136;28;20327;-85
2023/11/19 05:10:24;;;;;;;;;;;12.60;99.90;;;;;;4935393;28;19921;-85
2023/11/19 05:12:51;;;;;;;;;;;12.60;99.90;;;;;;4936440;28;20005;-85
2023/11/19 05:15:17;;;;;;;;;;;12.50;99.90;;;;;;4936159;28;20289;-84
2023/11/19 05:17:42;;;;;;;;;;;12.60;99.90;;;;;;4941004;28;19910;-84
2023/11/19 05:20:13;;;;;;;;;;;12.50;99.90;;;;;;4936897;28;19997;-85
2023/11/19 05:22:41;;;;;;;;;;;12.60;99.90;;;;;;4932310;28;20425;-85
2023/11/19 05:25:08;;;;;;;;;;;12.50;99.90;;;;;;4933028;28;20005;-85
2023/11/19 05:27:34;;;;;;;;;;;12.50;99.90;;;;;;4936328;28;19911;-84
2023/11/19 05:30:00;;;;;;;;;;;12.50;99.90;;;;;;4940440;28;19921;-85
2023/11/19 05:32:25;;;;;;;;;;;12.60;99.90;;;;;;4945652;28;20593;-85
2023/11/19 05:34:51;;;;;;;;;;;12.60;99.90;;;;;;4938902;28;19911;-84
2023/11/19 05:37:16;;;;;;;;;;;12.60;99.90;;;;;;4944239;28;20259;-85
2023/11/19 05:39:42;;;;;;;;;;;12.60;99.90;;;;;;4946791;28;19949;-85
2023/11/19 05:42:07;;;;;;;;;;;12.70;99.90;;;;;;4943455;28;19930;-85
2023/11/19 05:44:33;;;;;;;;;;;12.70;99.90;;;;;;4945597;28;19946;-85
2023/11/19 05:46:58;;;;;;;;;;;12.70;99.90;;;;;;4946452;28;19993;-86
2023/11/19 05:49:24;;;;;;;;;;;12.60;99.90;;;;;;4936190;28;19911;-85
2023/11/19 05:51:49;;;;;;;;;;;12.60;99.90;;;;;;4946707;28;19961;-83
2023/11/19 05:54:14;;;;;;;;;;;12.60;99.90;;;;;;4944081;28;20526;-84
2023/11/19 05:56:40;;;;;;;;;;;12.60;99.90;;;;;;4947253;28;19994;-84
2023/11/19 05:59:14;;;;;;;;;;;12.60;99.90;;;;;;4943924;28;19937;-84
2023/11/19 06:01:41;;;;;;;;;;;12.60;99.90;;;;;;4949199;28;20374;-84
2023/11/19 06:04:07;;;;;;;;;;;12.60;99.90;;;;;;4964384;28;19910;-84
2023/11/19 06:06:32;;;;;;;;;;;12.70;99.90;;;;;;4954792;28;19921;-85
2023/11/19 06:08:58;;;;;;;;;;;12.60;99.90;;;;;;4934850;28;20004;-86
2023/11/19 06:11:26;;;;;;;;;;;12.70;99.90;;;;;;4938735;28;19925;-85
2023/11/19 06:13:52;;;;;;;;;;;12.60;99.90;;;;;;4943027;28;20346;-85
2023/11/19 06:16:18;;;;;;;;;;;12.70;99.90;;;;;;4945016;28;19911;-85
2023/11/19 06:18:44;;;;;;;;;;;12.70;99.90;;;;;;4942514;28;19918;-84
2023/11/19 06:21:10;;;;;;;;;;;12.60;99.90;;;;;;4944215;28;19923;-84
2023/11/19 06:23:35;;;;;;;;;;;12.60;99.90;;;;;;4944430;28;19934;-85
2023/11/19 06:26:01;;;;;;;;;;;12.70;99.90;;;;;;4940994;28;19910;-85
2023/11/19 06:28:26;;;;;;;;;;;12.60;99.90;;;;;;4939928;28;19914;-84
2023/11/19 06:30:52;;;;;;;;;;;12.60;99.90;;;;;;4938776;28;19950;-85
2023/11/19 06:33:17;;;;;;;;;;;12.60;99.90;;;;;;4941627;28;20001;-85
2023/11/19 06:35:43;;;;;;;;;;;12.60;99.90;;;;;;4940689;28;19918;-87
2023/11/19 06:38:08;;;;;;;;;;;12.60;99.90;;;;;;4946952;28;20233;-87
2023/11/19 06:40:36;;;;;;;;;;;12.60;99.90;;;;;;4950184;28;19918;-86
2023/11/19 06:43:03;;;;;;;;;;;12.50;99.90;;;;;;4964022;28;19946;-86
2023/11/19 06:45:29;;;;;;;;;;;12.50;99.90;;;;;;4945945;28;19961;-83
2023/11/19 06:47:54;;;;;;;;;;;12.50;99.90;;;;;;4944922;28;21515;-88
2023/11/19 06:50:20;;;;;;;;;;;12.50;99.90;;;;;;4939597;28;19921;-86
2023/11/19 06:52:46;;;;;;;;;;;12.50;99.90;;;;;;4942498;28;19918;-86
2023/11/19 06:55:11;;;;;;;;;;;12.50;99.90;;;;;;4939637;28;20297;-84
2023/11/19 06:57:37;;;;;;;;;;;12.50;99.90;;;;;;4955911;28;20009;-85
2023/11/19 07:00:02;;;;;;;;;;;12.50;99.90;;;;;;4951033;28;19915;-85
2023/11/19 07:02:28;;;;;;;;;;;12.50;99.90;;;;;;4944763;28;19918;-84
2023/11/19 07:04:54;;;;;;;;;;;12.50;99.90;;;;;;4949128;28;20330;-85
2023/11/19 07:07:20;;;;;;;;;;;12.50;99.90;;;;;;4940326;28;19919;-85
2023/11/19 07:09:45;;;;;;;;;;;12.50;99.90;;;;;;4945605;28;19911;-86
2023/11/19 07:12:11;;;;;;;;;;;12.50;99.90;;;;;;4944004;28;19914;-86
2023/11/19 07:14:36;;;;;;;;;;;12.40;99.90;;;;;;4944268;28;20616;-84
2023/11/19 07:17:02;;;;;;;;;;;12.50;99.90;;;;;;4942980;28;19917;-85
2023/11/19 07:19:27;;;;;;;;;;;12.50;99.90;;;;;;4932961;28;19989;-84
2023/11/19 07:21:54;;;;;;;;;;;12.50;99.90;;;;;;4937427;28;20349;-84
2023/11/19 07:24:20;;;;;;;;;;;12.50;99.90;;;;;;4951872;28;19938;-83
2023/11/19 07:26:47;;;;;;;;;;;12.50;99.90;;;;;;4946376;28;19911;-84
2023/11/19 07:29:12;;;;;;;;;;;12.50;99.90;;;;;;4937810;28;20013;-87
2023/11/19 07:31:38;;;;;;;;;;;12.50;99.90;;;;;;4941246;28;20401;-84
2023/11/19 07:34:06;;;;;;;;;;;12.50;99.90;;;;;;4941806;28;19910;-85
2023/11/19 07:36:32;;;;;;;;;;;12.50;99.90;;;;;;4940501;28;19918;-85
2023/11/19 07:38:58;;;;;;;;;;;12.50;99.90;;;;;;4940333;28;19910;-85
2023/11/19 07:41:25;;;;;;;;;;;12.50;99.90;;;;;;4938523;28;19919;-85
2023/11/19 07:43:51;;;;;;;;;;;12.50;99.90;;;;;;4945801;28;19980;-85
2023/11/19 07:46:19;;;;;;;;;;;12.60;99.90;;;;;;4942554;28;20373;-85
2023/11/19 07:48:46;;;;;;;;;;;12.60;99.90;;;;;;4949692;28;19921;-84
2023/11/19 07:51:12;;;;;;;;;;;12.60;99.90;;;;;;4935494;28;19929;-85
2023/11/19 07:53:38;;;;;;;;;;;12.60;99.90;;;;;;4944601;28;19980;-86
2023/11/19 07:56:04;;;;;;;;;;;12.60;99.90;;;;;;4950932;28;20412;-86
2023/11/19 07:58:29;;;;;;;;;;;12.70;99.90;;;;;;4945776;28;20330;-88
2023/11/19 08:00:55;;;;;;;;;;;12.70;99.90;;;;;;4945080;28;19953;-87
2023/11/19 08:03:21;;;;;;;;;;;12.70;99.90;;;;;;4953727;28;20001;-87
2023/11/19 08:05:47;;;;;;;;;;;12.80;99.90;;;;;;4941397;28;19911;-88
2023/11/19 08:08:13;;;;;;;;;;;12.80;99.90;;;;;;4945749;28;20001;-85
2023/11/19 08:10:39;;;;;;;;;;;12.90;99.90;;;;;;4945247;28;19917;-82
2023/11/19 08:13:05;;;;;;;;;;;13.00;99.90;;;;;;4940693;28;19917;-85
2023/11/19 08:20:44;;;;;;;;;;;13.10;99.90;;;;;;3293421;23;19930;-85
2023/11/19 08:23:09;;;;;;;;;;;13.20;99.90;;;;;;4932846;29;19914;-87
2023/11/19 08:25:35;;;;;;;;;;;13.20;99.90;;;;;;4929234;29;20325;-87
2023/11/19 08:28:00;;;;;;;;;;;13.20;99.90;;;;;;4940443;29;19918;-86
2023/11/19 08:30:26;;;;;;;;;;;13.10;99.90;;;;;;4918429;29;19911;-86
2023/11/19 08:32:52;;;;;;;;;;;13.10;99.90;;;;;;4912857;29;19911;-85
2023/11/19 08:35:17;;;;;;;;;;;13.10;99.90;;;;;;4913019;29;20296;-86
2023/11/19 08:37:45;;;;;;;;;;;13.10;99.90;;;;;;4911921;29;19911;-85
2023/11/19 08:40:11;;;;;;;;;;;13.10;99.90;;;;;;4940636;28;19942;-86
2023/11/19 08:42:39;;;;;;;;;;;13.10;99.90;;;;;;4937780;28;20412;-87
2023/11/19 08:45:04;;;;;;;;;;;13.10;99.90;;;;;;4926804;29;20594;-86
2023/11/19 08:47:30;;;;;;;;;;;13.10;99.90;;;;;;4909575;29;20009;-86
2023/11/19 08:49:55;;;;;;;;;;;13.10;99.90;;;;;;4917086;29;19918;-85
2023/11/19 08:52:21;;;;;;;;;;;13.10;99.90;;;;;;4916439;29;19974;-86
2023/11/19 08:54:46;;;;;;;;;;;13.10;99.90;;;;;;4921928;29;19917;-86
2023/11/19 08:57:12;;;;;;;;;;;13.10;99.90;;;;;;4920237;29;20385;-86
2023/11/19 08:59:38;;;;;;;;;;;13.10;99.80;;;;;;4924936;29;20321;-86
2023/11/19 09:02:06;;;;;;;;;;;13.10;99.90;;;;;;4920843;29;19919;-86
2023/11/19 09:04:32;;;;;;;;;;;13.10;99.60;;;;;;4922183;29;19911;-86
2023/11/19 09:06:58;;;;;;;;;;;13.10;99.60;;;;;;4918463;29;19926;-85
2023/11/19 09:09:23;;;;;;;;;;;13.10;99.30;;;;;;4919226;29;19911;-87
2023/11/19 09:11:49;;;;;;;;;;;13.10;99.30;;;;;;4919423;29;19915;-86
2023/11/19 09:14:14;;;;;;;;;;;13.10;99.40;;;;;;4946482;28;19911;-86
2023/11/19 09:16:40;;;;;;;;;;;13.20;99.40;;;;;;4917093;29;19911;-86
2023/11/19 09:19:05;;;;;;;;;;;13.20;99.20;;;;;;4919089;29;19911;-86
2023/11/19 09:21:31;;;;;;;;;;;13.20;99.10;;;;;;4916779;29;20436;-85
2023/11/19 09:23:57;;;;;;;;;;;13.30;99.00;;;;;;4910919;29;19911;-83
2023/11/19 09:26:22;;;;;;;;;;;13.30;98.90;;;;;;4915936;29;19918;-82
2023/11/19 09:28:48;;;;;;;;;;;13.30;98.90;;;;;;4912281;29;19911;-83
2023/11/19 09:31:14;;;;;;;;;;;13.30;98.80;;;;;;4919786;29;19914;-83
2023/11/19 09:33:39;;;;;;;;;;;13.40;98.80;;;;;;4917899;29;19911;-83
2023/11/19 09:36:06;;;;;;;;;;;13.40;98.70;;;;;;4911172;29;19974;-83
2023/11/19 09:38:31;;;;;;;;;;;13.40;98.40;;;;;;4909141;29;19942;-84
2023/11/19 09:40:58;;;;;;;;;;;13.40;98.40;;;;;;4908499;29;19978;-84
2023/11/19 09:43:23;;;;;;;;;;;13.40;98.30;;;;;;4911087;28;19911;-85
2023/11/19 09:45:50;;;;;;;;;;;13.50;98.40;;;;;;4905896;29;19918;-83
2023/11/19 09:48:19;;;;;;;;;;;13.50;98.30;;;;;;4913369;29;19922;-83
2023/11/19 09:50:46;;;;;;;;;;;13.60;98.20;;;;;;4905134;29;20300;-83
2023/11/19 09:53:12;;;;;;;;;;;13.50;98.00;;;;;;4910929;29;19917;-85
2023/11/19 09:55:38;;;;;;;;;;;13.50;97.80;;;;;;4912456;29;19919;-83
2023/11/19 09:58:03;;;;;;;;;;;13.50;97.90;;;;;;4909629;29;20281;-85
2023/11/19 10:00:30;;;;;;;;;;;13.60;97.90;;;;;;4906277;29;19935;-86
2023/11/19 10:02:57;;;;;;;;;;;13.60;97.80;;;;;;4905884;29;19994;-83
2023/11/19 10:05:23;;;;;;;;;;;13.60;97.60;;;;;;4911558;29;20009;-83
2023/11/19 10:07:49;;;;;;;;;;;13.70;97.50;;;;;;4913395;29;19911;-83
2023/11/19 10:10:17;;;;;;;;;;;13.70;97.30;;;;;;4925934;29;20294;-83
2023/11/19 10:12:44;;;;;;;;;;;13.70;97.40;;;;;;4913248;29;20006;-84
2023/11/19 10:15:14;;;;;;;;;;;13.70;97.40;;;;;;4911980;29;19923;-82
2023/11/19 10:17:39;;;;;;;;;;;13.70;97.20;;;;;;4919900;29;20321;-82
2023/11/19 10:20:05;;;;;;;;;;;13.70;97.00;;;;;;4916386;29;19915;-83
2023/11/19 10:22:36;;;;;;;;;;;13.70;97.10;;;;;;4918164;29;20460;-83
2023/11/19 10:25:02;;;;;;;;;;;13.70;97.10;;;;;;4921552;29;20290;-84
2023/11/19 10:27:27;;;;;;;;;;;13.70;97.00;;;;;;4918286;29;19911;-85
2023/11/19 10:29:53;;;;;;;;;;;13.80;97.10;;;;;;4916952;29;20591;-83
2023/11/19 10:32:18;;;;;;;;;;;13.80;97.00;;;;;;4914745;29;19938;-86
2023/11/19 10:34:44;;;;;;;;;;;13.80;96.40;;;;;;4916312;29;19925;-86
2023/11/19 10:37:26;;;;;;;;;;;13.70;96.70;;;;;;4915293;29;19911;-86
2023/11/19 10:39:55;;;;;;;;;;;13.70;96.60;;;;;;4917572;29;19943;-87
2023/11/19 10:42:21;;;;;;;;;;;13.80;96.60;;;;;;4913318;29;19923;-85
2023/11/19 10:44:46;;;;;;;;;;;13.80;96.70;;;;;;4911091;29;20392;-87
2023/11/19 10:47:13;;;;;;;;;;;13.80;96.30;;;;;;4915007;29;19976;-86
2023/11/19 10:49:39;;;;;;;;;;;13.80;96.00;;;;;;4925874;29;19918;-86
2023/11/19 10:52:05;;;;;;;;;;;13.80;96.20;;;;;;4913812;29;19917;-87
2023/11/19 10:54:30;;;;;;;;;;;13.80;95.80;;;;;;4913006;29;19970;-85
2023/11/19 10:56:58;;;;;;;;;;;13.90;95.90;;;;;;4910175;29;19911;-84
2023/11/19 10:59:25;;;;;;;;;;;14.00;95.90;;;;;;4905200;29;20046;-85
2023/11/19 11:01:52;;;;;;;;;;;14.00;95.80;;;;;;4903646;29;20642;-85
2023/11/19 11:04:25;;;;;;;;;;;14.10;95.60;;;;;;4909687;29;19911;-86
2023/11/19 11:06:51;;;;;;;;;;;14.10;95.30;;;;;;4908681;29;19962;-87
2023/11/19 11:09:17;;;;;;;;;;;14.10;95.00;;;;;;4918519;29;19919;-82
2023/11/19 11:11:46;;;;;;;;;;;14.20;94.90;;;;;;4909367;29;19925;-82
2023/11/19 11:14:12;;;;;;;;;;;14.30;94.80;;;;;;4911357;29;19911;-84
2023/11/19 11:16:41;;;;;;;;;;;14.30;94.30;;;;;;4915347;29;19914;-83
2023/11/19 11:19:09;;;;;;;;;;;14.40;94.40;;;;;;4906978;29;19919;-84
2023/11/19 11:21:35;;;;;;;;;;;14.50;94.00;;;;;;4913669;29;19986;-81
2023/11/19 11:24:01;;;;;;;;;;;14.60;93.90;;;;;;4912733;29;19911;-82
2023/11/19 11:26:37;;;;;;;;;;;14.60;93.50;;;;;;4910690;29;19911;-83
2023/11/19 11:29:10;;;;;;;;;;;14.60;93.00;;;;;;4908500;29;19911;-83
2023/11/19 11:31:38;;;;;;;;;;;14.60;93.20;;;;;;4900528;29;20330;-82
2023/11/19 11:34:13;;;;;;;;;;;14.60;93.10;;;;;;4909318;29;20888;-83
2023/11/19 11:37:05;;;;;;;;;;;14.60;92.90;;;;;;4909113;29;20356;-83
2023/11/19 11:39:31;;;;;;;;;;;14.50;92.70;;;;;;4903427;29;20394;-83
2023/11/19 11:42:25;;;;;;;;;;;14.50;92.70;;;;;;4911943;29;19950;-82
2023/11/19 11:45:03;;;;;;;;;;;14.40;92.40;;;;;;4906509;29;19910;-83
2023/11/19 11:47:49;;;;;;;;;;;14.40;92.10;;;;;;4908292;29;19914;-83
2023/11/19 11:50:18;;;;;;;;;;;14.40;92.50;;;;;;4908284;29;19926;-82
2023/11/19 11:52:57;;;;;;;;;;;14.40;92.20;;;;;;4912595;29;19960;-82
2023/11/19 11:55:29;;;;;;;;;;;14.40;92.30;;;;;;4909976;29;19917;-83
2023/11/19 11:57:55;;;;;;;;;;;14.80;92.00;;;;;;4947674;28;20405;-83
2023/11/19 12:00:26;;;;;;;;;;;14.80;91.80;;;;;;4912492;29;19939;-83
2023/11/19 12:02:52;;;;;;;;;;;14.80;91.90;;;;;;4907944;29;19923;-82
2023/11/19 12:05:17;;;;;;;;;;;14.80;91.70;;;;;;4908618;29;20592;-83
2023/11/19 12:07:54;;;;;;;;;;;14.90;91.80;;;;;;4911117;29;20358;-83
2023/11/19 12:10:21;;;;;;;;;;;15.00;91.70;;;;;;4911224;29;19915;-83
2023/11/19 12:12:47;;;;;;;;;;;15.20;91.90;;;;;;4908558;29;20377;-85
2023/11/19 12:15:14;;;;;;;;;;;15.90;91.60;;;;;;4911843;29;19927;-83
2023/11/19 12:17:49;;;;;;;;;;;16.20;90.50;;;;;;4925847;29;20002;-84
2023/11/19 12:20:16;;;;;;;;;;;15.90;90.20;;;;;;4912292;29;19923;-84
2023/11/19 12:22:42;;;;;;;;;;;15.60;90.40;;;;;;4909537;29;20428;-85
2023/11/19 12:25:09;;;;;;;;;;;15.40;90.10;;;;;;4912352;29;19919;-83
2023/11/19 12:27:35;;;;;;;;;;;15.20;90.50;;;;;;4912234;29;20366;-84
2023/11/19 12:30:04;;;;;;;;;;;15.20;90.40;;;;;;4912584;29;19926;-83
2023/11/19 12:32:40;;;;;;;;;;;15.20;90.40;;;;;;4945759;28;19960;-83
2023/11/19 12:35:06;;;;;;;;;;;15.20;90.10;;;;;;4908642;29;19919;-82
2023/11/19 12:37:31;;;;;;;;;;;15.80;89.30;;;;;;4902956;29;19929;-83
2023/11/19 12:39:58;;;;;;;;;;;16.30;87.20;;;;;;4905547;29;19911;-84
2023/11/19 12:42:37;;;;;;;;;;;16.00;85.80;;;;;;4906597;29;20570;-84
2023/11/19 12:45:04;;;;;;;;;;;15.90;87.10;;;;;;4908832;29;19922;-83
2023/11/19 12:47:29;;;;;;;;;;;15.90;86.40;;;;;;4913854;29;19934;-83
2023/11/19 12:49:58;;;;;;;;;;;15.70;87.20;;;;;;4910646;29;19914;-83
2023/11/19 12:52:23;;;;;;;;;;;15.50;87.70;;;;;;4905624;29;20426;-84
2023/11/19 12:54:49;;;;;;;;;;;15.40;88.30;;;;;;4943357;28;19914;-84
2023/11/19 12:57:15;;;;;;;;;;;15.20;87.10;;;;;;4909667;29;19967;-87
2023/11/19 12:59:40;;;;;;;;;;;15.10;88.10;;;;;;4912472;29;19910;-83
2023/11/19 13:02:06;;;;;;;;;;;15.10;88.60;;;;;;4914338;29;20338;-82
2023/11/19 13:04:32;;;;;;;;;;;15.00;88.60;;;;;;4909620;29;19934;-81
2023/11/19 13:06:58;;;;;;;;;;;15.00;88.70;;;;;;4908682;29;19915;-84
2023/11/19 13:09:24;;;;;;;;;;;15.00;89.00;;;;;;4907246;29;20002;-83
2023/11/19 13:11:50;;;;;;;;;;;15.10;88.10;;;;;;4905954;29;19922;-84
2023/11/19 13:14:16;;;;;;;;;;;15.10;88.00;;;;;;4910021;29;19915;-83
2023/11/19 13:16:48;;;;;;;;;;;15.00;88.40;;;;;;4935886;28;20401;-85
2023/11/19 13:19:15;;;;;;;;;;;15.00;88.50;;;;;;4910795;29;20797;-84
2023/11/19 13:21:42;;;;;;;;;;;15.00;88.40;;;;;;4908985;29;20418;-83
2023/11/19 13:24:07;;;;;;;;;;;15.00;88.90;;;;;;4908543;29;20504;-85
2023/11/19 13:26:33;;;;;;;;;;;15.00;88.70;;;;;;4910383;29;19911;-83
2023/11/19 13:28:59;;;;;;;;;;;14.90;88.80;;;;;;4908083;29;20021;-82
2023/11/19 13:31:25;;;;;;;;;;;14.80;88.80;;;;;;4909597;29;19911;-83
2023/11/19 13:33:50;;;;;;;;;;;14.80;89.20;;;;;;4909407;29;20190;-83
2023/11/19 13:36:16;;;;;;;;;;;14.80;89.30;;;;;;4910201;29;19919;-85
2023/11/19 13:38:44;;;;;;;;;;;14.80;89.60;;;;;;4909653;29;19910;-83
2023/11/19 13:41:10;;;;;;;;;;;14.80;89.60;;;;;;4907261;29;19931;-85
2023/11/19 13:43:36;;;;;;;;;;;14.80;89.80;;;;;;4908875;29;19926;-82
2023/11/19 13:46:02;;;;;;;;;;;14.80;89.60;;;;;;4908608;29;20270;-84
2023/11/19 13:48:28;;;;;;;;;;;14.70;89.80;;;;;;4904911;29;19915;-84
2023/11/19 13:50:57;;;;;;;;;;;14.70;89.40;;;;;;4908347;29;20333;-83
2023/11/19 13:53:25;;;;;;;;;;;14.70;89.60;;;;;;4909330;29;19961;-83
2023/11/19 13:55:52;;;;;;;;;;;14.70;89.90;;;;;;4914469;29;20289;-84
2023/11/19 13:58:18;;;;;;;;;;;14.80;90.00;;;;;;4942164;28;20014;-84
2023/11/19 14:00:44;;;;;;;;;;;14.70;89.90;;;;;;4913954;28;20041;-84
2023/11/19 14:03:12;;;;;;;;;;;14.80;89.70;;;;;;4916816;29;19922;-81
2023/11/19 14:05:38;;;;;;;;;;;14.60;89.70;;;;;;4946855;28;19930;-83
2023/11/19 14:08:11;;;;;;;;;;;14.50;89.90;;;;;;4915547;29;19911;-83
2023/11/19 14:10:42;;;;;;;;;;;14.50;90.20;;;;;;4908458;29;20997;-85
2023/11/19 14:13:08;;;;;;;;;;;14.50;90.30;;;;;;4918528;29;20347;-83
2023/11/19 14:15:33;;;;;;;;;;;14.40;90.40;;;;;;4911933;29;20002;-84
2023/11/19 14:17:59;;;;;;;;;;;14.30;90.50;;;;;;4910410;29;19958;-86